Terminal Aerodrome Forecast
Issued by NWS North Platte, NE

Home | Current Version | Previous Version | Graphics & Text | Print | Product List | Glossary On
Versions: 1 2 3 4 5 6 7 8 9 10 11 12 13 14 15 16 17 18 19 20 21 22
000
FTUS43 KLBF 231700
TAFVTN
TAF
KVTN 231739Z 2318/2418 14011KT P6SM VCSH OVC015
      TEMPO 2320/2324 5SM -SHRA BR OVC008
     FM240000 11010KT 3SM -DZ BR OVC008
     FM240700 06008KT 1SM -DZ BR OVC005
     FM241400 08008KT 5SM BR VCSH OVC008=

USA.gov is the U.S. government's official web portal to all federal, state and local government web resources and services.